Airfield :
LOGIN :

Register | Disclaimer

   EN    FR    IT 

 










Legend :    VFR   Marginal VFR   IFR   Intensive IFR   Very Intensive IFR
Visi :
Ceiling :
>= 8 km
>= 3000ft
5 to 8 km
1000 to 3000 ft
1500m to 5 km
500 to 1000 ft
800 to 1500m
200 to 500 ft
< 800m
< 200 ft
Symbols :   Thunderstorms  Fog  Heavy snow  Heavy precipitations  Wind > 20 kt
SIGMETs :     Misc.  Thunderstorms  Icing  Turbulence  Mountain Waves  Volcanic Ashes






- Airport Elevation : 505 ft
- IATA code : SXB


LFST - Strasbourg

CURRENT METAR :
  • 010800Z AUTO 18005KT 150V210 9999 FEW008 OVC043 18/15 Q1011 TEMPO 4000 SHRA SCT050CB

EXPIRED METARs :
  • 010730Z AUTO 20005KT 9999 SCT006 BKN040 BKN100 17/15 Q1011 TEMPO 4000 SHRA SCT050CB
  • 010700Z AUTO 22005KT 190V250 9999 BKN006 BKN072 OVC100 16/15 Q1011 BECMG FEW040 BKN060
  • 010630Z AUTO 20005KT 160V230 9999 BKN005 OVC046 16/15 Q1011 BECMG FEW040 BKN060
  • 010600Z AUTO 20006KT 9999 BKN005 BKN098 15/15 Q1011 NOSIG
  • 010530Z AUTO 20005KT 9999 FEW045 SCT072 OVC096 15/14 Q1011 TEMPO BKN005

TAF AMD TAF LFST
Valid from the 01 at 06:00 until the 02 at 06:00 UTC


010526Z 0106/0206 18008KT 9999 FEW040 BKN060
PROB30
TEMPO 0106/0108 BKN005
TEMPO 0109/0206 4000 SHRA SCT050CB
PROB40
TEMPO 0110/0116 20015G25KT 2000 TSRA



MET'MAP, your aeronautical weather chart ! - Copyright ORBIFLY December 2007 - Disclaimer

ORBIFLY MET'MAP TEAM :

Programming & Development : Alexandra Zaïnal
Concept & original design : Baudouin d'Aumeries
Assistance for programming : Marc-Olivier Méhu
Technical & hardware support : Manuel Goepfert

Contact : metmap@orbifly.com




SOURCES & CREDITS :

   NOAA